sensor_id;sensor_type;location;lat;lon;timestamp;pressure;altitude;pressure_sealevel;temperature;humidity
33506;BME280;19843;51.040;13.782;2023-06-14T00:02:00;100328.38;;;13.55;70.18
33506;BME280;19843;51.040;13.782;2023-06-14T00:04:28;100313.84;;;13.84;69.46
33506;BME280;19843;51.040;13.782;2023-06-14T00:06:55;100317.94;;;13.71;69.79
33506;BME280;19843;51.040;13.782;2023-06-14T00:09:23;100310.78;;;13.74;70.05
33506;BME280;19843;51.040;13.782;2023-06-14T00:11:51;100308.13;;;13.97;69.17
33506;BME280;19843;51.040;13.782;2023-06-14T00:14:20;100314.41;;;14.09;68.97
33506;BME280;19843;51.040;13.782;2023-06-14T00:16:47;100320.41;;;14.08;69.26
33506;BME280;19843;51.040;13.782;2023-06-14T00:19:15;100305.75;;;13.99;70.05
33506;BME280;19843;51.040;13.782;2023-06-14T00:21:43;100311.50;;;13.87;70.37
33506;BME280;19843;51.040;13.782;2023-06-14T00:24:10;100309.47;;;13.68;71.01
33506;BME280;19843;51.040;13.782;2023-06-14T00:26:38;100313.78;;;13.33;72.59
33506;BME280;19843;51.040;13.782;2023-06-14T00:29:05;100303.75;;;13.64;72.02
33506;BME280;19843;51.040;13.782;2023-06-14T00:31:34;100310.72;;;13.54;71.73
33506;BME280;19843;51.040;13.782;2023-06-14T00:34:02;100306.09;;;13.62;70.60
33506;BME280;19843;51.040;13.782;2023-06-14T00:36:29;100303.00;;;13.83;70.19
33506;BME280;19843;51.040;13.782;2023-06-14T00:38:57;100289.53;;;13.73;71.60
33506;BME280;19843;51.040;13.782;2023-06-14T00:41:24;100298.66;;;13.70;71.26
33506;BME280;19843;51.040;13.782;2023-06-14T00:43:53;100296.97;;;13.65;71.54
33506;BME280;19843;51.040;13.782;2023-06-14T00:46:22;100297.16;;;13.56;71.62
33506;BME280;19843;51.040;13.782;2023-06-14T00:48:52;100301.31;;;13.63;71.77
33506;BME280;19843;51.040;13.782;2023-06-14T00:51:19;100310.75;;;12.95;74.89
33506;BME280;19843;51.040;13.782;2023-06-14T00:53:47;100312.06;;;13.29;74.24
33506;BME280;19843;51.040;13.782;2023-06-14T00:56:15;100310.59;;;12.60;76.73
33506;BME280;19843;51.040;13.782;2023-06-14T00:58:43;100311.16;;;12.81;76.45
33506;BME280;19843;51.040;13.782;2023-06-14T01:01:11;100308.03;;;12.54;77.72
33506;BME280;19843;51.040;13.782;2023-06-14T01:03:38;100302.78;;;12.53;78.14
33506;BME280;19843;51.040;13.782;2023-06-14T01:06:15;100311.03;;;12.62;76.68
33506;BME280;19843;51.040;13.782;2023-06-14T01:09:03;100302.06;;;13.00;75.14
33506;BME280;19843;51.040;13.782;2023-06-14T01:11:41;100305.91;;;13.07;74.40
33506;BME280;19843;51.040;13.782;2023-06-14T01:14:13;100302.94;;;13.16;73.95
33506;BME280;19843;51.040;13.782;2023-06-14T01:16:42;100313.72;;;13.30;73.87
33506;BME280;19843;51.040;13.782;2023-06-14T01:19:12;100311.19;;;13.25;74.08
33506;BME280;19843;51.040;13.782;2023-06-14T01:21:41;100304.19;;;13.19;74.52
33506;BME280;19843;51.040;13.782;2023-06-14T01:24:10;100316.81;;;12.97;75.79
33506;BME280;19843;51.040;13.782;2023-06-14T01:26:38;100308.50;;;13.00;75.69
33506;BME280;19843;51.040;13.782;2023-06-14T01:29:13;100305.50;;;12.77;76.49
33506;BME280;19843;51.040;13.782;2023-06-14T01:31:44;100304.59;;;13.05;76.38
33506;BME280;19843;51.040;13.782;2023-06-14T01:34:11;100299.53;;;12.95;76.34
33506;BME280;19843;51.040;13.782;2023-06-14T01:36:41;100303.97;;;12.96;76.45
33506;BME280;19843;51.040;13.782;2023-06-14T01:39:13;100297.09;;;12.93;76.39
33506;BME280;19843;51.040;13.782;2023-06-14T01:41:42;100303.06;;;12.92;76.58
33506;BME280;19843;51.040;13.782;2023-06-14T01:44:12;100289.00;;;12.60;78.35
33506;BME280;19843;51.040;13.782;2023-06-14T01:46:42;100295.50;;;12.64;78.29
33506;BME280;19843;51.040;13.782;2023-06-14T01:49:10;100290.75;;;12.52;77.83
33506;BME280;19843;51.040;13.782;2023-06-14T01:51:38;100292.50;;;12.57;78.41
33506;BME280;19843;51.040;13.782;2023-06-14T01:54:05;100297.13;;;12.65;78.03
33506;BME280;19843;51.040;13.782;2023-06-14T01:56:34;100300.06;;;12.85;77.26
33506;BME280;19843;51.040;13.782;2023-06-14T01:59:02;100302.25;;;12.91;76.74
33506;BME280;19843;51.040;13.782;2023-06-14T02:01:29;100299.91;;;12.93;76.34
33506;BME280;19843;51.040;13.782;2023-06-14T02:03:57;100300.88;;;12.85;77.12
33506;BME280;19843;51.040;13.782;2023-06-14T02:06:26;100300.03;;;12.41;79.01
33506;BME280;19843;51.040;13.782;2023-06-14T02:08:53;100305.38;;;12.46;79.01
33506;BME280;19843;51.040;13.782;2023-06-14T02:11:21;100315.28;;;12.43;78.72
33506;BME280;19843;51.040;13.782;2023-06-14T02:13:50;100309.28;;;12.57;78.39
33506;BME280;19843;51.040;13.782;2023-06-14T02:16:17;100316.22;;;12.75;77.84
33506;BME280;19843;51.040;13.782;2023-06-14T02:18:45;100312.25;;;12.76;77.56
33506;BME280;19843;51.040;13.782;2023-06-14T02:21:12;100310.31;;;12.37;78.98
33506;BME280;19843;51.040;13.782;2023-06-14T02:23:39;100305.50;;;12.49;79.07
33506;BME280;19843;51.040;13.782;2023-06-14T02:26:07;100304.72;;;12.37;79.70
33506;BME280;19843;51.040;13.782;2023-06-14T02:28:35;100307.56;;;12.52;79.07
33506;BME280;19843;51.040;13.782;2023-06-14T02:31:04;100313.53;;;12.51;79.37
33506;BME280;19843;51.040;13.782;2023-06-14T02:33:33;100312.06;;;12.41;79.32
33506;BME280;19843;51.040;13.782;2023-06-14T02:36:01;100310.13;;;12.17;80.43
33506;BME280;19843;51.040;13.782;2023-06-14T02:38:29;100317.84;;;12.20;80.18
33506;BME280;19843;51.040;13.782;2023-06-14T02:40:57;100316.81;;;12.00;81.72
33506;BME280;19843;51.040;13.782;2023-06-14T02:43:25;100317.72;;;12.17;80.98
33506;BME280;19843;51.040;13.782;2023-06-14T02:45:53;100325.19;;;12.13;81.02
33506;BME280;19843;51.040;13.782;2023-06-14T02:48:22;100327.66;;;11.90;82.33
33506;BME280;19843;51.040;13.782;2023-06-14T02:50:49;100322.28;;;12.09;82.01
33506;BME280;19843;51.040;13.782;2023-06-14T02:53:17;100320.63;;;12.20;81.17
33506;BME280;19843;51.040;13.782;2023-06-14T02:55:45;100323.19;;;12.25;80.91
33506;BME280;19843;51.040;13.782;2023-06-14T02:58:13;100328.78;;;12.25;80.93
33506;BME280;19843;51.040;13.782;2023-06-14T03:00:40;100328.94;;;11.80;82.79
33506;BME280;19843;51.040;13.782;2023-06-14T03:03:08;100328.13;;;12.04;82.49
33506;BME280;19843;51.040;13.782;2023-06-14T03:05:44;100325.75;;;12.18;81.47
33506;BME280;19843;51.040;13.782;2023-06-14T03:08:14;100336.16;;;11.81;83.16
33506;BME280;19843;51.040;13.782;2023-06-14T03:10:43;100339.78;;;11.69;84.24
33506;BME280;19843;51.040;13.782;2023-06-14T03:13:11;100336.63;;;11.95;82.96
33506;BME280;19843;51.040;13.782;2023-06-14T03:15:38;100326.84;;;12.01;82.46
33506;BME280;19843;51.040;13.782;2023-06-14T03:18:07;100328.44;;;12.15;81.48
33506;BME280;19843;51.040;13.782;2023-06-14T03:20:35;100343.50;;;12.10;81.42
33506;BME280;19843;51.040;13.782;2023-06-14T03:23:05;100333.41;;;12.34;80.59
33506;BME280;19843;51.040;13.782;2023-06-14T03:25:33;100331.53;;;12.38;80.16
33506;BME280;19843;51.040;13.782;2023-06-14T03:28:02;100338.69;;;12.35;80.28
33506;BME280;19843;51.040;13.782;2023-06-14T03:30:29;100330.72;;;12.37;80.74
33506;BME280;19843;51.040;13.782;2023-06-14T03:32:57;100338.25;;;12.21;80.67
33506;BME280;19843;51.040;13.782;2023-06-14T03:35:28;100351.06;;;12.22;81.47
33506;BME280;19843;51.040;13.782;2023-06-14T03:37:55;100351.25;;;12.29;80.94
33506;BME280;19843;51.040;13.782;2023-06-14T03:40:24;100353.00;;;12.34;80.46
33506;BME280;19843;51.040;13.782;2023-06-14T03:42:53;100359.91;;;12.36;80.40
33506;BME280;19843;51.040;13.782;2023-06-14T03:45:21;100364.31;;;12.37;79.88
33506;BME280;19843;51.040;13.782;2023-06-14T03:47:49;100359.25;;;12.55;79.43
33506;BME280;19843;51.040;13.782;2023-06-14T03:50:17;100364.06;;;12.42;79.94
33506;BME280;19843;51.040;13.782;2023-06-14T03:52:45;100364.94;;;12.30;81.90
33506;BME280;19843;51.040;13.782;2023-06-14T03:55:12;100366.94;;;12.05;81.85
33506;BME280;19843;51.040;13.782;2023-06-14T03:57:44;100373.91;;;12.24;81.55
33506;BME280;19843;51.040;13.782;2023-06-14T04:00:12;100373.75;;;12.45;80.06
33506;BME280;19843;51.040;13.782;2023-06-14T04:02:41;100377.78;;;12.60;79.51
33506;BME280;19843;51.040;13.782;2023-06-14T04:05:10;100389.34;;;12.86;78.30
33506;BME280;19843;51.040;13.782;2023-06-14T04:07:38;100382.78;;;12.94;77.24
33506;BME280;19843;51.040;13.782;2023-06-14T04:10:11;100391.09;;;12.91;77.38
33506;BME280;19843;51.040;13.782;2023-06-14T04:12:39;100388.06;;;14.03;73.21
33506;BME280;19843;51.040;13.782;2023-06-14T04:15:11;100387.19;;;15.73;65.10
33506;BME280;19843;51.040;13.782;2023-06-14T04:17:47;100390.69;;;15.47;64.83
33506;BME280;19843;51.040;13.782;2023-06-14T04:20:15;100393.41;;;16.65;61.22
33506;BME280;19843;51.040;13.782;2023-06-14T04:22:43;100381.56;;;16.00;62.47
33506;BME280;19843;51.040;13.782;2023-06-14T04:25:11;100390.91;;;15.35;65.41
33506;BME280;19843;51.040;13.782;2023-06-14T04:27:38;100380.84;;;16.59;61.63
33506;BME280;19843;51.040;13.782;2023-06-14T04:30:07;100370.78;;;16.32;62.80
33506;BME280;19843;51.040;13.782;2023-06-14T04:32:36;100377.22;;;16.29;62.12
33506;BME280;19843;51.040;13.782;2023-06-14T04:35:06;100374.81;;;16.61;61.17
33506;BME280;19843;51.040;13.782;2023-06-14T04:37:34;100372.31;;;17.16;59.16
33506;BME280;19843;51.040;13.782;2023-06-14T04:40:07;100383.66;;;18.08;55.81
33506;BME280;19843;51.040;13.782;2023-06-14T04:42:38;100388.81;;;17.99;54.48
33506;BME280;19843;51.040;13.782;2023-06-14T04:45:07;100377.25;;;18.77;53.16
33506;BME280;19843;51.040;13.782;2023-06-14T04:47:36;100404.22;;;18.05;54.78
33506;BME280;19843;51.040;13.782;2023-06-14T04:50:05;100406.91;;;17.13;58.01
33506;BME280;19843;51.040;13.782;2023-06-14T04:52:33;100405.47;;;16.66;59.68
33506;BME280;19843;51.040;13.782;2023-06-14T04:55:01;100399.38;;;16.60;60.53
33506;BME280;19843;51.040;13.782;2023-06-14T04:57:30;100401.91;;;16.99;58.74
33506;BME280;19843;51.040;13.782;2023-06-14T04:59:58;100411.69;;;17.09;59.20
33506;BME280;19843;51.040;13.782;2023-06-14T05:02:28;100412.56;;;16.26;61.22
33506;BME280;19843;51.040;13.782;2023-06-14T05:04:58;100411.63;;;15.92;62.90
33506;BME280;19843;51.040;13.782;2023-06-14T05:07:28;100410.00;;;14.48;67.93
33506;BME280;19843;51.040;13.782;2023-06-14T05:09:55;100422.81;;;14.65;69.56
33506;BME280;19843;51.040;13.782;2023-06-14T05:12:23;100416.91;;;14.70;68.79
33506;BME280;19843;51.040;13.782;2023-06-14T05:14:50;100426.63;;;13.74;73.51
33506;BME280;19843;51.040;13.782;2023-06-14T05:17:18;100423.09;;;13.93;72.37
33506;BME280;19843;51.040;13.782;2023-06-14T05:19:46;100419.66;;;15.05;69.11
33506;BME280;19843;51.040;13.782;2023-06-14T05:22:15;100417.19;;;14.84;67.76
33506;BME280;19843;51.040;13.782;2023-06-14T05:24:42;100424.50;;;15.70;65.66
33506;BME280;19843;51.040;13.782;2023-06-14T05:27:10;100419.28;;;16.45;62.73
33506;BME280;19843;51.040;13.782;2023-06-14T05:29:38;100423.53;;;15.82;65.61
33506;BME280;19843;51.040;13.782;2023-06-14T05:32:07;100422.84;;;16.68;61.83
33506;BME280;19843;51.040;13.782;2023-06-14T05:34:34;100414.84;;;17.04;60.61
33506;BME280;19843;51.040;13.782;2023-06-14T05:37:02;100420.09;;;16.19;63.42
33506;BME280;19843;51.040;13.782;2023-06-14T05:39:32;100427.00;;;16.48;62.06
33506;BME280;19843;51.040;13.782;2023-06-14T05:41:59;100414.84;;;17.00;60.48
33506;BME280;19843;51.040;13.782;2023-06-14T05:44:27;100421.81;;;17.13;60.27
33506;BME280;19843;51.040;13.782;2023-06-14T05:46:54;100419.94;;;16.34;62.94
33506;BME280;19843;51.040;13.782;2023-06-14T05:49:22;100425.78;;;16.22;62.96
33506;BME280;19843;51.040;13.782;2023-06-14T05:51:49;100419.97;;;16.91;61.41
33506;BME280;19843;51.040;13.782;2023-06-14T05:54:17;100429.75;;;17.01;60.45
33506;BME280;19843;51.040;13.782;2023-06-14T05:56:46;100436.50;;;16.13;62.71
33506;BME280;19843;51.040;13.782;2023-06-14T05:59:13;100418.13;;;16.76;62.86
33506;BME280;19843;51.040;13.782;2023-06-14T06:01:41;100432.09;;;17.29;60.64
33506;BME280;19843;51.040;13.782;2023-06-14T06:04:09;100433.44;;;17.05;60.78
33506;BME280;19843;51.040;13.782;2023-06-14T06:06:36;100420.72;;;17.22;60.19
33506;BME280;19843;51.040;13.782;2023-06-14T06:09:03;100430.72;;;16.82;61.35
33506;BME280;19843;51.040;13.782;2023-06-14T06:11:31;100423.19;;;17.27;59.80
33506;BME280;19843;51.040;13.782;2023-06-14T06:14:19;100429.69;;;16.97;60.96
33506;BME280;19843;51.040;13.782;2023-06-14T06:16:46;100433.03;;;17.40;58.97
33506;BME280;19843;51.040;13.782;2023-06-14T06:19:14;100440.25;;;16.74;61.03
33506;BME280;19843;51.040;13.782;2023-06-14T06:21:41;100440.84;;;16.86;60.04
33506;BME280;19843;51.040;13.782;2023-06-14T06:24:09;100450.63;;;16.17;62.85
33506;BME280;19843;51.040;13.782;2023-06-14T06:26:36;100446.00;;;15.59;64.92
33506;BME280;19843;51.040;13.782;2023-06-14T06:29:05;100450.97;;;16.11;64.48
33506;BME280;19843;51.040;13.782;2023-06-14T06:31:34;100451.13;;;16.75;62.88
33506;BME280;19843;51.040;13.782;2023-06-14T06:34:01;100460.50;;;17.13;62.06
33506;BME280;19843;51.040;13.782;2023-06-14T06:36:29;100448.59;;;17.64;61.75
33506;BME280;19843;51.040;13.782;2023-06-14T06:38:56;100459.00;;;18.45;57.75
33506;BME280;19843;51.040;13.782;2023-06-14T06:41:24;100457.09;;;16.70;61.09
33506;BME280;19843;51.040;13.782;2023-06-14T06:43:51;100464.75;;;16.43;62.33
33506;BME280;19843;51.040;13.782;2023-06-14T06:46:19;100459.94;;;17.67;58.62
33506;BME280;19843;51.040;13.782;2023-06-14T06:48:48;100454.69;;;17.66;58.12
33506;BME280;19843;51.040;13.782;2023-06-14T06:51:15;100456.66;;;17.65;59.37
33506;BME280;19843;51.040;13.782;2023-06-14T06:53:43;100452.25;;;18.64;57.33
33506;BME280;19843;51.040;13.782;2023-06-14T06:56:15;100447.88;;;18.15;58.37
33506;BME280;19843;51.040;13.782;2023-06-14T06:58:43;100449.97;;;18.77;56.58
33506;BME280;19843;51.040;13.782;2023-06-14T07:01:10;100446.56;;;19.30;55.14
33506;BME280;19843;51.040;13.782;2023-06-14T07:03:39;100436.50;;;19.50;54.12
33506;BME280;19843;51.040;13.782;2023-06-14T07:06:08;100436.06;;;18.02;57.40
33506;BME280;19843;51.040;13.782;2023-06-14T07:08:36;100439.22;;;17.56;59.07
33506;BME280;19843;51.040;13.782;2023-06-14T07:11:05;100434.28;;;18.90;56.67
33506;BME280;19843;51.040;13.782;2023-06-14T07:13:33;100443.06;;;18.74;56.81
33506;BME280;19843;51.040;13.782;2023-06-14T07:16:01;100450.59;;;18.01;58.68
33506;BME280;19843;51.040;13.782;2023-06-14T07:18:29;100451.16;;;18.79;54.48
33506;BME280;19843;51.040;13.782;2023-06-14T07:20:56;100444.06;;;17.52;58.48
33506;BME280;19843;51.040;13.782;2023-06-14T07:23:25;100443.31;;;18.55;55.04
33506;BME280;19843;51.040;13.782;2023-06-14T07:25:53;100440.41;;;19.06;52.69
33506;BME280;19843;51.040;13.782;2023-06-14T07:28:20;100445.13;;;18.84;52.55
33506;BME280;19843;51.040;13.782;2023-06-14T07:30:48;100439.16;;;18.97;54.90
33506;BME280;19843;51.040;13.782;2023-06-14T07:33:16;100445.09;;;20.00;51.08
33506;BME280;19843;51.040;13.782;2023-06-14T07:35:43;100443.06;;;20.43;49.02
33506;BME280;19843;51.040;13.782;2023-06-14T07:38:12;100445.88;;;20.36;48.60
33506;BME280;19843;51.040;13.782;2023-06-14T07:40:40;100453.19;;;20.59;47.80
33506;BME280;19843;51.040;13.782;2023-06-14T07:43:08;100449.56;;;20.37;47.57
33506;BME280;19843;51.040;13.782;2023-06-14T07:45:36;100448.75;;;20.33;46.35
33506;BME280;19843;51.040;13.782;2023-06-14T07:48:07;100457.28;;;20.47;46.52
33506;BME280;19843;51.040;13.782;2023-06-14T07:50:35;100453.59;;;20.07;46.63
33506;BME280;19843;51.040;13.782;2023-06-14T07:53:02;100454.28;;;19.51;46.96
33506;BME280;19843;51.040;13.782;2023-06-14T07:55:30;100457.94;;;19.55;46.72
33506;BME280;19843;51.040;13.782;2023-06-14T07:58:12;100457.66;;;19.95;45.05
33506;BME280;19843;51.040;13.782;2023-06-14T08:00:40;100455.63;;;20.39;44.67
33506;BME280;19843;51.040;13.782;2023-06-14T08:03:07;100453.44;;;19.36;46.35
33506;BME280;19843;51.040;13.782;2023-06-14T08:05:35;100455.53;;;20.96;43.98
33506;BME280;19843;51.040;13.782;2023-06-14T08:08:02;100454.00;;;20.38;45.37
33506;BME280;19843;51.040;13.782;2023-06-14T08:10:30;100456.44;;;20.29;44.87
33506;BME280;19843;51.040;13.782;2023-06-14T08:12:57;100457.56;;;20.92;45.32
33506;BME280;19843;51.040;13.782;2023-06-14T08:15:26;100458.47;;;20.50;45.67
33506;BME280;19843;51.040;13.782;2023-06-14T08:17:54;100469.28;;;19.58;45.49
33506;BME280;19843;51.040;13.782;2023-06-14T08:20:21;100462.84;;;19.61;45.19
33506;BME280;19843;51.040;13.782;2023-06-14T08:22:49;100459.97;;;21.01;41.91
33506;BME280;19843;51.040;13.782;2023-06-14T08:25:21;100459.69;;;20.24;41.52
33506;BME280;19843;51.040;13.782;2023-06-14T08:27:49;100464.13;;;20.25;42.19
33506;BME280;19843;51.040;13.782;2023-06-14T08:30:16;100460.19;;;21.45;41.71
33506;BME280;19843;51.040;13.782;2023-06-14T08:32:45;100448.50;;;22.47;39.78
33506;BME280;19843;51.040;13.782;2023-06-14T08:35:19;100450.34;;;22.27;40.00
33506;BME280;19843;51.040;13.782;2023-06-14T08:37:46;100457.78;;;21.44;41.43
33506;BME280;19843;51.040;13.782;2023-06-14T08:40:19;100455.78;;;21.37;41.17
33506;BME280;19843;51.040;13.782;2023-06-14T08:42:50;100456.97;;;22.03;40.86
33506;BME280;19843;51.040;13.782;2023-06-14T08:45:19;100454.34;;;22.33;39.92
33506;BME280;19843;51.040;13.782;2023-06-14T08:47:53;100462.75;;;21.15;42.13
33506;BME280;19843;51.040;13.782;2023-06-14T08:50:26;100446.75;;;22.16;41.01
33506;BME280;19843;51.040;13.782;2023-06-14T08:52:58;100440.31;;;22.57;39.71
33506;BME280;19843;51.040;13.782;2023-06-14T08:55:28;100449.34;;;22.44;40.38
33506;BME280;19843;51.040;13.782;2023-06-14T08:58:01;100438.22;;;22.16;40.86
33506;BME280;19843;51.040;13.782;2023-06-14T09:00:30;100448.50;;;21.26;40.50
33506;BME280;19843;51.040;13.782;2023-06-14T09:03:01;100459.72;;;21.61;39.41
33506;BME280;19843;51.040;13.782;2023-06-14T09:05:30;100456.41;;;19.93;42.61
33506;BME280;19843;51.040;13.782;2023-06-14T09:07:58;100463.31;;;20.24;43.06
33506;BME280;19843;51.040;13.782;2023-06-14T09:10:31;100464.09;;;19.82;42.63
33506;BME280;19843;51.040;13.782;2023-06-14T09:13:00;100481.16;;;20.28;40.44
33506;BME280;19843;51.040;13.782;2023-06-14T09:15:29;100467.44;;;21.57;39.73
33506;BME280;19843;51.040;13.782;2023-06-14T09:17:57;100463.69;;;22.30;38.93
33506;BME280;19843;51.040;13.782;2023-06-14T09:20:26;100464.34;;;23.55;37.58
33506;BME280;19843;51.040;13.782;2023-06-14T09:22:53;100468.34;;;22.03;39.41
33506;BME280;19843;51.040;13.782;2023-06-14T09:25:21;100472.50;;;21.94;39.38
33506;BME280;19843;51.040;13.782;2023-06-14T09:28:06;100471.75;;;21.83;40.05
33506;BME280;19843;51.040;13.782;2023-06-14T09:30:36;100466.28;;;21.51;40.20
33506;BME280;19843;51.040;13.782;2023-06-14T09:33:04;100457.53;;;22.39;39.19
33506;BME280;19843;51.040;13.782;2023-06-14T09:35:33;100464.13;;;20.39;42.47
33506;BME280;19843;51.040;13.782;2023-06-14T09:38:03;100459.75;;;21.54;41.18
33506;BME280;19843;51.040;13.782;2023-06-14T09:40:34;100462.03;;;21.81;40.70
33506;BME280;19843;51.040;13.782;2023-06-14T09:43:04;100453.03;;;21.89;41.20
33506;BME280;19843;51.040;13.782;2023-06-14T09:45:33;100468.50;;;20.93;42.59
33506;BME280;19843;51.040;13.782;2023-06-14T09:48:01;100458.69;;;21.93;40.91
33506;BME280;19843;51.040;13.782;2023-06-14T09:50:35;100458.16;;;22.61;40.45
33506;BME280;19843;51.040;13.782;2023-06-14T09:53:05;100454.94;;;22.96;39.71
33506;BME280;19843;51.040;13.782;2023-06-14T09:55:36;100453.13;;;22.72;40.21
33506;BME280;19843;51.040;13.782;2023-06-14T09:58:05;100446.28;;;22.69;39.99
33506;BME280;19843;51.040;13.782;2023-06-14T10:00:35;100436.22;;;22.58;39.78
33506;BME280;19843;51.040;13.782;2023-06-14T10:03:07;100455.84;;;22.45;40.39
33506;BME280;19843;51.040;13.782;2023-06-14T10:05:42;100452.34;;;23.40;39.72
33506;BME280;19843;51.040;13.782;2023-06-14T10:08:13;100450.25;;;22.75;39.75
33506;BME280;19843;51.040;13.782;2023-06-14T10:10:42;100445.00;;;22.33;41.33
33506;BME280;19843;51.040;13.782;2023-06-14T10:13:10;100448.94;;;21.20;43.30
33506;BME280;19843;51.040;13.782;2023-06-14T10:15:43;100446.00;;;22.08;41.81
33506;BME280;19843;51.040;13.782;2023-06-14T10:18:20;100447.63;;;21.46;42.75
33506;BME280;19843;51.040;13.782;2023-06-14T10:21:00;100447.50;;;22.27;41.51
33506;BME280;19843;51.040;13.782;2023-06-14T10:23:32;100445.22;;;22.04;41.66
33506;BME280;19843;51.040;13.782;2023-06-14T10:26:02;100449.59;;;21.57;42.51
33506;BME280;19843;51.040;13.782;2023-06-14T10:28:30;100456.75;;;20.99;42.91
33506;BME280;19843;51.040;13.782;2023-06-14T10:31:05;100442.34;;;22.08;41.37
33506;BME280;19843;51.040;13.782;2023-06-14T10:33:34;100432.06;;;23.34;39.27
33506;BME280;19843;51.040;13.782;2023-06-14T10:36:26;100438.28;;;22.95;39.44
33506;BME280;19843;51.040;13.782;2023-06-14T10:38:58;100436.09;;;21.75;41.44
33506;BME280;19843;51.040;13.782;2023-06-14T10:41:27;100431.94;;;21.87;42.34
33506;BME280;19843;51.040;13.782;2023-06-14T10:46:53;100436.72;;;21.38;43.04
33506;BME280;19843;51.040;13.782;2023-06-14T10:49:36;100435.84;;;21.52;43.58
33506;BME280;19843;51.040;13.782;2023-06-14T10:52:09;100422.47;;;22.53;41.20
33506;BME280;19843;51.040;13.782;2023-06-14T10:55:16;100437.09;;;21.47;43.42
33506;BME280;19843;51.040;13.782;2023-06-14T10:57:47;100426.47;;;21.55;42.93
33506;BME280;19843;51.040;13.782;2023-06-14T11:00:20;100427.03;;;21.21;43.87
33506;BME280;19843;51.040;13.782;2023-06-14T11:03:33;100421.03;;;21.82;43.21
33506;BME280;19843;51.040;13.782;2023-06-14T11:06:13;100428.03;;;22.22;42.88
33506;BME280;19843;51.040;13.782;2023-06-14T11:09:09;100424.31;;;21.00;43.29
33506;BME280;19843;51.040;13.782;2023-06-14T11:11:42;100412.06;;;21.83;42.02
33506;BME280;19843;51.040;13.782;2023-06-14T11:14:10;100417.91;;;21.65;42.01
33506;BME280;19843;51.040;13.782;2023-06-14T11:16:38;100420.81;;;22.14;43.22
33506;BME280;19843;51.040;13.782;2023-06-14T11:19:05;100423.38;;;22.42;43.47
33506;BME280;19843;51.040;13.782;2023-06-14T11:21:33;100414.25;;;21.65;44.83
33506;BME280;19843;51.040;13.782;2023-06-14T11:24:01;100418.84;;;21.41;45.33
33506;BME280;19843;51.040;13.782;2023-06-14T11:26:31;100416.09;;;21.19;45.00
33506;BME280;19843;51.040;13.782;2023-06-14T11:29:01;100418.81;;;21.52;45.33
33506;BME280;19843;51.040;13.782;2023-06-14T11:31:28;100411.78;;;21.67;45.71
33506;BME280;19843;51.040;13.782;2023-06-14T11:33:58;100411.78;;;21.67;45.64
33506;BME280;19843;51.040;13.782;2023-06-14T11:36:26;100421.31;;;21.35;46.02
33506;BME280;19843;51.040;13.782;2023-06-14T11:38:59;100422.94;;;21.99;45.39
33506;BME280;19843;51.040;13.782;2023-06-14T11:41:34;100410.69;;;21.50;46.00
33506;BME280;19843;51.040;13.782;2023-06-14T11:44:05;100410.75;;;21.98;44.82
33506;BME280;19843;51.040;13.782;2023-06-14T11:46:34;100415.34;;;21.78;45.73
33506;BME280;19843;51.040;13.782;2023-06-14T11:49:02;100417.09;;;22.17;45.31
33506;BME280;19843;51.040;13.782;2023-06-14T11:51:31;100405.72;;;22.17;45.27
33506;BME280;19843;51.040;13.782;2023-06-14T11:53:59;100412.56;;;21.75;45.96
33506;BME280;19843;51.040;13.782;2023-06-14T11:56:27;100421.19;;;21.60;47.04
33506;BME280;19843;51.040;13.782;2023-06-14T11:58:56;100417.22;;;21.47;46.37
33506;BME280;19843;51.040;13.782;2023-06-14T12:01:23;100420.31;;;20.83;47.68
33506;BME280;19843;51.040;13.782;2023-06-14T12:03:53;100409.69;;;21.08;48.21
33506;BME280;19843;51.040;13.782;2023-06-14T12:06:28;100398.50;;;22.05;46.68
33506;BME280;19843;51.040;13.782;2023-06-14T12:08:59;100409.50;;;21.44;47.62
33506;BME280;19843;51.040;13.782;2023-06-14T12:11:32;100405.44;;;21.45;47.53
33506;BME280;19843;51.040;13.782;2023-06-14T12:14:03;100420.72;;;20.81;48.61
33506;BME280;19843;51.040;13.782;2023-06-14T12:16:31;100420.41;;;20.26;49.15
33506;BME280;19843;51.040;13.782;2023-06-14T12:19:13;100412.72;;;21.50;47.31
33506;BME280;19843;51.040;13.782;2023-06-14T12:21:41;100425.13;;;20.93;49.24
33506;BME280;19843;51.040;13.782;2023-06-14T12:24:12;100418.94;;;21.23;48.27
33506;BME280;19843;51.040;13.782;2023-06-14T12:26:41;100425.91;;;21.04;48.88
33506;BME280;19843;51.040;13.782;2023-06-14T12:29:10;100421.19;;;20.65;50.12
33506;BME280;19843;51.040;13.782;2023-06-14T12:31:39;100419.97;;;20.45;50.04
33506;BME280;19843;51.040;13.782;2023-06-14T12:34:07;100416.06;;;21.34;49.01
33506;BME280;19843;51.040;13.782;2023-06-14T12:36:34;100420.19;;;21.11;48.70
33506;BME280;19843;51.040;13.782;2023-06-14T12:39:06;100412.03;;;21.90;46.71
33506;BME280;19843;51.040;13.782;2023-06-14T12:41:34;100402.84;;;21.68;46.53
33506;BME280;19843;51.040;13.782;2023-06-14T12:44:03;100392.72;;;23.56;44.33
33506;BME280;19843;51.040;13.782;2023-06-14T12:46:32;100386.47;;;23.07;44.40
33506;BME280;19843;51.040;13.782;2023-06-14T12:49:01;100387.44;;;22.59;45.21
33506;BME280;19843;51.040;13.782;2023-06-14T12:51:29;100396.81;;;21.59;47.10
33506;BME280;19843;51.040;13.782;2023-06-14T12:53:56;100386.25;;;21.63;46.84
33506;BME280;19843;51.040;13.782;2023-06-14T12:56:24;100391.03;;;21.77;47.58